Bellingham International Airport Bellingham US
ICAO: KBLI
IATA: BLI
Category: Medium
Scheduled Services: Yes

Elevation: 170 ft
TransAlt. 18000 ft.

Airport Communications:
VICTORIA APP/DEP:132.7
ATIS:134.45
CTAF:124.9
GND:127.4
SEATTLE RDO:122.15
TWR:124.9
UNICOM:122.95

KBLI Zoom In..

Runways:

(A) RW 16 length 6701 ft width 150 ft
ILS 108.50 / hdg 160

(B) RW 34 length 6701 ft width 150 ft
---- / hdg 340

Location; KBLI
Day. 20 / Time. 10.53 Zulu
* Altimeter: 29.96
* Temperature: 14° c. 57.2°f.
* Wind from: VRB° Speed 04 kn.
Dewpoint: 10° c.
Visibility: 10 Statute Miles.
Clouds: Overcast 2600 ft.

KBLI 201053Z AUTO VRB04KT 10SM OVC026 14/10 A2996 RMK AO2 SLP150 T01390100


Wind From VRB°
Speed 04 kn.

 
 
jpsmedia.com for Web Design SOUNDCLOUD worldairports.se 2018   terms of use